createdAt,value
2024-02-12T00:00:44.783Z,3.72
2024-02-12T00:03:12.741Z,3.75
2024-02-12T00:05:42.257Z,3.30
2024-02-12T00:08:12.464Z,3.47
2024-02-12T00:10:41.073Z,3.40
2024-02-12T00:13:09.372Z,3.22
2024-02-12T00:15:39.741Z,3.20
2024-02-12T00:18:08.437Z,3.40
2024-02-12T00:20:36.613Z,3.10
2024-02-12T00:23:07.604Z,3.40
2024-02-12T00:25:37.716Z,3.63
2024-02-12T00:28:08.721Z,3.10
2024-02-12T00:30:36.787Z,3.35
2024-02-12T00:33:07.972Z,3.22
2024-02-12T00:35:35.990Z,3.03
2024-02-12T00:38:05.685Z,3.47
2024-02-12T00:40:33.537Z,3.10
2024-02-12T00:43:01.787Z,3.78
2024-02-12T00:45:29.722Z,3.47
2024-02-12T00:47:58.243Z,3.35
2024-02-12T00:50:26.733Z,3.13
2024-02-12T00:52:55.085Z,3.22
2024-02-12T00:55:24.887Z,3.25
2024-02-12T00:57:55.579Z,3.60
2024-02-12T01:00:24.272Z,3.38
2024-02-12T01:02:54.137Z,3.35
2024-02-12T01:07:52.091Z,3.80
2024-02-12T01:10:20.113Z,3.55
2024-02-12T01:12:49.367Z,3.65
2024-02-12T01:15:17.510Z,3.80
2024-02-12T01:17:50.861Z,4.03
2024-02-12T01:20:23.856Z,3.55
2024-02-12T01:22:51.997Z,4.13
2024-02-12T01:25:20.301Z,3.75
2024-02-12T01:27:49.838Z,4.22
2024-02-12T01:30:17.971Z,3.53
2024-02-12T01:32:46.115Z,3.47
2024-02-12T01:35:14.322Z,4.00
2024-02-12T01:37:42.670Z,4.13
2024-02-12T01:40:12.782Z,3.97
2024-02-12T01:42:40.771Z,4.20
2024-02-12T01:45:15.462Z,3.97
2024-02-12T01:47:47.819Z,3.60
2024-02-12T01:50:16.960Z,4.25
2024-02-12T01:52:50.181Z,4.05
2024-02-12T01:55:19.967Z,3.70
2024-02-12T01:57:51.297Z,4.20
2024-02-12T02:00:26.564Z,4.40
2024-02-12T02:03:11.290Z,3.92
2024-02-12T02:05:40.353Z,3.97
2024-02-12T02:08:10.104Z,4.15
2024-02-12T02:10:37.982Z,4.43
2024-02-12T02:13:07.583Z,4.18
2024-02-12T02:15:37.096Z,4.30
2024-02-12T02:18:05.715Z,4.63
2024-02-12T02:20:36.747Z,4.35
2024-02-12T02:23:06.199Z,4.53
2024-02-12T02:25:36.370Z,4.75
2024-02-12T02:28:06.115Z,5.22
2024-02-12T02:30:34.131Z,4.88
2024-02-12T02:33:02.176Z,5.07
2024-02-12T02:35:31.428Z,5.32
2024-02-12T02:38:02.778Z,5.03
2024-02-12T02:40:31.144Z,4.97
2024-02-12T02:43:01.867Z,5.00
2024-02-12T02:45:29.925Z,5.03
2024-02-12T02:47:58.160Z,5.53
2024-02-12T02:50:28.131Z,5.35
2024-02-12T02:52:56.273Z,4.90
2024-02-12T02:55:24.760Z,5.40
2024-02-12T02:57:52.746Z,4.72
2024-02-12T03:00:23.232Z,4.80
2024-02-12T03:02:51.579Z,5.00
2024-02-12T03:06:05.355Z,5.13
2024-02-12T03:08:35.382Z,5.40
2024-02-12T03:11:05.701Z,5.15
2024-02-12T03:13:35.762Z,5.25
2024-02-12T03:16:05.513Z,5.03
2024-02-12T03:18:33.418Z,5.00
2024-02-12T03:21:01.297Z,5.38
2024-02-12T03:23:30.879Z,5.78
2024-02-12T03:25:58.736Z,5.18
2024-02-12T03:28:27.806Z,4.97
2024-02-12T03:30:55.624Z,4.55
2024-02-12T03:33:24.847Z,5.18
2024-02-12T03:35:52.674Z,4.72
2024-02-12T03:38:20.621Z,5.30
2024-02-12T03:40:48.527Z,4.75
2024-02-12T03:43:16.832Z,4.95
2024-02-12T03:45:46.498Z,4.93
2024-02-12T03:48:34.637Z,4.72
2024-02-12T03:51:21.756Z,4.40
2024-02-12T03:54:07.340Z,4.72
2024-02-12T03:56:52.908Z,4.95
2024-02-12T03:59:38.595Z,4.65
2024-02-12T04:02:08.329Z,4.47
2024-02-12T04:04:39.307Z,4.68
2024-02-12T04:07:08.909Z,5.03
2024-02-12T04:09:42.565Z,4.68
2024-02-12T04:12:12.924Z,4.82
2024-02-12T04:14:43.766Z,4.53
2024-02-12T04:17:15.304Z,5.43
2024-02-12T04:19:44.284Z,4.70
2024-02-12T04:22:16.018Z,5.20
2024-02-12T04:24:45.818Z,4.93
2024-02-12T04:27:14.556Z,4.82
2024-02-12T04:29:43.111Z,4.72
2024-02-12T04:32:13.000Z,4.82
2024-02-12T04:34:42.223Z,4.70
2024-02-12T04:37:13.179Z,4.63
2024-02-12T04:39:41.100Z,4.88
2024-02-12T04:42:10.325Z,4.90
2024-02-12T04:44:38.421Z,4.57
2024-02-12T04:47:06.769Z,5.03
2024-02-12T04:49:37.440Z,4.28
2024-02-12T04:52:07.102Z,4.70
2024-02-12T04:54:37.721Z,4.18
2024-02-12T04:57:06.235Z,4.75
2024-02-12T04:59:34.270Z,4.43
2024-02-12T05:02:02.337Z,4.30
2024-02-12T05:04:30.995Z,4.35
2024-02-12T05:06:59.101Z,4.45
2024-02-12T05:09:27.019Z,4.20
2024-02-12T05:11:56.306Z,4.25
2024-02-12T05:14:28.404Z,4.40
2024-02-12T05:17:00.781Z,4.43
2024-02-12T05:19:46.402Z,4.55
2024-02-12T05:22:32.007Z,4.78
2024-02-12T05:25:00.376Z,4.38
2024-02-12T05:27:30.738Z,4.20
2024-02-12T05:29:58.887Z,4.18
2024-02-12T05:32:28.304Z,4.00
2024-02-12T05:34:57.083Z,4.15
2024-02-12T05:37:25.369Z,4.20
2024-02-12T05:39:53.222Z,4.13
2024-02-12T05:42:21.102Z,4.53
2024-02-12T05:44:50.208Z,4.35
2024-02-12T05:47:18.759Z,4.45
2024-02-12T05:49:47.330Z,4.60
2024-02-12T05:52:15.276Z,4.07
2024-02-12T05:54:47.779Z,4.55
2024-02-12T05:57:15.756Z,4.25
2024-02-12T05:59:43.605Z,4.07
2024-02-12T06:02:13.462Z,4.78
2024-02-12T06:04:41.300Z,4.28
2024-02-12T06:07:09.303Z,4.90
2024-02-12T06:09:37.840Z,4.20
2024-02-12T06:12:10.295Z,4.32
2024-02-12T06:14:39.401Z,4.53
2024-02-12T06:17:09.463Z,4.60
2024-02-12T06:19:38.962Z,4.07
2024-02-12T06:22:07.253Z,4.90
2024-02-12T06:24:35.109Z,4.60
2024-02-12T06:27:02.942Z,4.43
2024-02-12T06:29:30.951Z,4.65
2024-02-12T06:31:58.813Z,4.43
2024-02-12T06:34:27.091Z,4.50
2024-02-12T06:37:12.920Z,4.32
2024-02-12T06:39:41.518Z,4.10
2024-02-12T06:42:09.374Z,4.63
2024-02-12T06:44:37.350Z,4.40
2024-02-12T06:47:05.555Z,4.75
2024-02-12T06:49:34.772Z,4.63
2024-02-12T06:52:03.950Z,4.40
2024-02-12T06:54:31.855Z,4.68
2024-02-12T06:57:00.192Z,4.53
2024-02-12T06:59:28.139Z,4.60
2024-02-12T07:01:57.888Z,4.40
2024-02-12T07:04:26.052Z,4.50
2024-02-12T07:06:55.848Z,4.68
2024-02-12T07:09:26.073Z,4.45
2024-02-12T07:11:54.159Z,4.80
2024-02-12T07:14:22.503Z,4.72
2024-02-12T07:16:51.787Z,4.47
2024-02-12T07:19:19.676Z,5.13
2024-02-12T07:21:47.758Z,4.60
2024-02-12T07:24:16.556Z,4.70
2024-02-12T07:26:46.503Z,4.82
2024-02-12T07:29:14.485Z,4.65
2024-02-12T07:31:43.831Z,4.57
2024-02-12T07:34:12.341Z,4.63
2024-02-12T07:36:44.654Z,4.78
2024-02-12T07:39:13.517Z,4.45
2024-02-12T07:41:42.319Z,4.22
2024-02-12T07:44:12.102Z,4.85
2024-02-12T07:46:41.358Z,4.95
2024-02-12T07:49:11.690Z,4.70
2024-02-12T07:51:41.655Z,4.22
2024-02-12T07:54:09.522Z,5.00
2024-02-12T07:56:37.550Z,4.22
2024-02-12T07:59:05.450Z,4.15
2024-02-12T08:01:34.654Z,4.63
2024-02-12T08:04:02.649Z,4.43
2024-02-12T08:06:30.930Z,4.45
2024-02-12T08:08:58.812Z,4.40
2024-02-12T08:11:26.724Z,4.75
2024-02-12T08:13:55.413Z,4.53
2024-02-12T08:16:23.338Z,4.55
2024-02-12T08:18:54.092Z,4.57
2024-02-12T08:21:22.166Z,4.72
2024-02-12T08:23:50.667Z,4.80
2024-02-12T08:26:18.620Z,4.90
2024-02-12T08:28:46.493Z,4.70
2024-02-12T08:31:18.793Z,4.45
2024-02-12T08:33:49.117Z,4.10
2024-02-12T08:36:18.653Z,4.70
2024-02-12T08:38:46.599Z,4.30
2024-02-12T08:41:24.200Z,4.82
2024-02-12T08:43:52.645Z,4.47
2024-02-12T08:46:20.704Z,4.68
2024-02-12T08:48:48.597Z,4.75
2024-02-12T08:51:17.862Z,4.70
2024-02-12T08:53:45.882Z,4.72
2024-02-12T08:56:17.577Z,4.88
2024-02-12T08:58:46.184Z,4.75
2024-02-12T09:01:15.049Z,4.75
2024-02-12T09:03:44.553Z,4.57
2024-02-12T09:06:15.150Z,4.65
2024-02-12T09:08:45.213Z,4.68
2024-02-12T09:11:14.528Z,4.68
2024-02-12T09:13:44.522Z,4.68
2024-02-12T09:16:12.409Z,4.60
2024-02-12T09:18:40.358Z,5.22
2024-02-12T09:21:07.492Z,4.28
2024-02-12T09:23:35.765Z,4.72
2024-02-12T09:26:06.843Z,4.63
2024-02-12T09:28:34.859Z,4.57
2024-02-12T09:31:02.839Z,4.25
2024-02-12T09:33:32.251Z,4.97
2024-02-12T09:36:00.227Z,4.78
2024-02-12T09:38:28.543Z,4.10
2024-02-12T09:40:58.350Z,4.43
2024-02-12T09:43:29.710Z,3.78
2024-02-12T09:45:58.299Z,4.55
2024-02-12T09:48:26.708Z,3.78
2024-02-12T09:50:54.645Z,3.72
2024-02-12T09:53:24.362Z,3.88
2024-02-12T09:55:54.000Z,4.32
2024-02-12T09:58:21.806Z,4.40
2024-02-12T10:00:51.795Z,3.85
2024-02-12T10:03:19.728Z,3.60
2024-02-12T10:05:47.659Z,3.72
2024-02-12T10:08:22.752Z,3.92
2024-02-12T10:10:51.290Z,3.72
2024-02-12T10:13:19.178Z,3.80
2024-02-12T10:15:47.901Z,4.03
2024-02-12T10:18:18.000Z,3.83
2024-02-12T10:20:46.402Z,3.90
2024-02-12T10:23:16.468Z,3.95
2024-02-12T10:25:46.944Z,4.20
2024-02-12T10:28:15.409Z,4.22
2024-02-12T10:30:44.155Z,3.85
2024-02-12T10:33:14.363Z,3.35
2024-02-12T10:35:47.853Z,3.97
2024-02-12T10:38:17.181Z,3.90
2024-02-12T10:40:53.890Z,4.40
2024-02-12T10:43:25.246Z,4.20
2024-02-12T10:45:54.550Z,4.30
2024-02-12T10:48:23.617Z,3.92
2024-02-12T10:50:55.689Z,4.57
2024-02-12T10:53:25.113Z,4.25
2024-02-12T10:55:54.374Z,4.45
2024-02-12T10:58:22.479Z,4.68
2024-02-12T11:01:02.926Z,5.50
2024-02-12T11:03:37.032Z,5.10
2024-02-12T11:06:12.282Z,4.60
2024-02-12T11:08:41.907Z,5.20
2024-02-12T11:11:17.084Z,5.55
2024-02-12T11:13:45.868Z,5.30
2024-02-12T11:16:14.778Z,5.10
2024-02-12T11:18:43.046Z,5.38
2024-02-12T11:21:17.838Z,5.07
2024-02-12T11:23:49.399Z,5.20
2024-02-12T11:26:18.337Z,5.30
2024-02-12T11:28:55.256Z,4.70
2024-02-12T11:31:27.467Z,5.10
2024-02-12T11:33:57.191Z,5.50
2024-02-12T11:36:29.031Z,5.03
2024-02-12T11:38:57.078Z,5.35
2024-02-12T11:41:25.407Z,5.50
2024-02-12T11:43:54.800Z,5.82
2024-02-12T11:46:22.837Z,5.97
2024-02-12T11:48:50.998Z,5.78
2024-02-12T11:51:21.958Z,6.22
2024-02-12T11:53:53.503Z,6.82
2024-02-12T11:56:23.066Z,5.97
2024-02-12T11:58:55.977Z,5.35
2024-02-12T12:01:24.286Z,6.13
2024-02-12T12:03:53.320Z,6.50
2024-02-12T12:06:23.414Z,6.03
2024-02-12T12:08:54.097Z,5.68
2024-02-12T12:11:22.541Z,6.20
2024-02-12T12:13:50.658Z,6.78
2024-02-12T12:16:18.548Z,6.57
2024-02-12T12:18:46.590Z,6.70
2024-02-12T12:21:15.702Z,6.72
2024-02-12T12:23:45.483Z,6.40
2024-02-12T12:26:15.141Z,6.72
2024-02-12T12:28:43.048Z,6.57
2024-02-12T12:31:12.439Z,6.30
2024-02-12T12:33:40.280Z,6.28
2024-02-12T12:36:12.152Z,7.18
2024-02-12T12:38:41.285Z,6.97
2024-02-12T12:41:11.409Z,8.75
2024-02-12T12:43:41.519Z,8.85
2024-02-12T12:46:09.493Z,8.30
2024-02-12T12:48:37.529Z,9.05
2024-02-12T12:51:06.874Z,7.65
2024-02-12T12:53:34.915Z,9.10
2024-02-12T12:56:03.038Z,8.25
2024-02-12T12:58:31.174Z,8.05
2024-02-12T13:01:00.539Z,8.00
2024-02-12T13:03:29.744Z,8.00
2024-02-12T13:05:57.958Z,8.35
2024-02-12T13:08:26.327Z,8.10
2024-02-12T13:10:54.721Z,8.10
2024-02-12T13:13:23.263Z,7.55
2024-02-12T13:15:52.004Z,7.20
2024-02-12T13:18:27.506Z,7.90
2024-02-12T13:20:55.514Z,6.18
2024-02-12T13:23:23.723Z,6.22
2024-02-12T13:25:52.092Z,6.55
2024-02-12T13:28:22.049Z,6.65
2024-02-12T13:30:50.143Z,6.72
2024-02-12T13:33:19.409Z,6.00
2024-02-12T13:35:50.527Z,5.72
2024-02-12T13:38:19.919Z,5.20
2024-02-12T13:40:49.383Z,5.90
2024-02-12T13:43:21.032Z,5.75
2024-02-12T13:45:50.962Z,5.80
2024-02-12T13:48:21.472Z,5.53
2024-02-12T13:50:52.998Z,5.32
2024-02-12T13:53:23.168Z,4.88
2024-02-12T13:55:52.305Z,4.47
2024-02-12T13:58:23.038Z,4.60
2024-02-12T14:01:04.183Z,4.55
2024-02-12T14:03:39.089Z,4.07
2024-02-12T14:06:09.834Z,4.25
2024-02-12T14:08:38.760Z,3.95
2024-02-12T14:11:07.299Z,4.38
2024-02-12T14:13:37.144Z,3.70
2024-02-12T14:16:09.795Z,3.67
2024-02-12T14:18:39.947Z,4.20
2024-02-12T14:21:11.495Z,3.05
2024-02-12T14:23:40.503Z,3.92
2024-02-12T14:26:10.597Z,3.63
2024-02-12T14:28:38.533Z,2.90
2024-02-12T14:31:07.945Z,3.05
2024-02-12T14:33:36.051Z,3.70
2024-02-12T14:36:04.714Z,2.70
2024-02-12T14:38:34.333Z,3.00
2024-02-12T14:41:03.807Z,2.90
2024-02-12T14:43:32.430Z,3.20
2024-02-12T14:46:01.647Z,2.72
2024-02-12T14:48:31.659Z,3.00
2024-02-12T14:50:59.852Z,3.45
2024-02-12T14:53:28.474Z,2.97
2024-02-12T14:55:59.401Z,3.08
2024-02-12T14:58:28.207Z,3.22
2024-02-12T15:00:56.490Z,2.80
2024-02-12T15:03:26.451Z,3.00
2024-02-12T15:05:55.968Z,2.70
2024-02-12T15:08:24.094Z,3.00
2024-02-12T15:10:53.129Z,2.72
2024-02-12T15:13:22.305Z,2.95
2024-02-12T15:15:50.256Z,3.10
2024-02-12T15:18:18.710Z,2.50
2024-02-12T15:20:47.300Z,2.75
2024-02-12T15:23:16.249Z,2.80
2024-02-12T15:25:45.110Z,3.03
2024-02-12T15:28:15.143Z,2.75
2024-02-12T15:30:46.490Z,2.72
2024-02-12T15:33:15.673Z,2.95
2024-02-12T15:35:43.874Z,3.00
2024-02-12T15:38:16.892Z,2.92
2024-02-12T15:40:44.932Z,3.13
2024-02-12T15:43:15.475Z,2.97
2024-02-12T15:45:45.495Z,3.10
2024-02-12T15:48:18.942Z,3.78
2024-02-12T15:50:47.968Z,3.50
2024-02-12T15:53:16.886Z,3.13
2024-02-12T15:55:44.710Z,3.30
2024-02-12T15:58:15.272Z,3.03
2024-02-12T16:00:45.432Z,3.58
2024-02-12T16:03:16.849Z,3.65
2024-02-12T16:06:10.204Z,2.90
2024-02-12T16:08:41.136Z,3.45
2024-02-12T16:11:11.861Z,3.55
2024-02-12T16:13:41.345Z,3.38
2024-02-12T16:16:10.707Z,3.10
2024-02-12T16:18:40.000Z,3.83
2024-02-12T16:21:08.751Z,3.30
2024-02-12T16:23:37.697Z,3.60
2024-02-12T16:26:08.118Z,3.47
2024-02-12T16:28:37.062Z,3.88
2024-02-12T16:31:05.820Z,4.15
2024-02-12T16:33:37.228Z,4.13
2024-02-12T16:36:06.323Z,4.15
2024-02-12T16:38:35.171Z,3.67
2024-02-12T16:41:04.040Z,4.63
2024-02-12T16:43:31.992Z,4.30
2024-02-12T16:45:59.824Z,3.78
2024-02-12T16:48:28.180Z,4.60
2024-02-12T16:50:57.546Z,4.32
2024-02-12T16:53:26.407Z,4.10
2024-02-12T16:55:54.242Z,4.18
2024-02-12T16:58:23.292Z,4.40
2024-02-12T17:00:52.015Z,4.95
2024-02-12T17:03:19.948Z,4.80
2024-02-12T17:05:47.948Z,4.65
2024-02-12T17:08:19.108Z,4.68
2024-02-12T17:10:47.085Z,4.85
2024-02-12T17:13:16.647Z,5.30
2024-02-12T17:15:45.133Z,5.15
2024-02-12T17:18:13.330Z,5.32
2024-02-12T17:20:42.816Z,6.05
2024-02-12T17:23:12.502Z,6.10
2024-02-12T17:25:41.755Z,5.88
2024-02-12T17:28:10.658Z,6.60
2024-02-12T17:30:38.801Z,8.05
2024-02-12T17:33:09.735Z,7.28
2024-02-12T17:35:37.983Z,7.80
2024-02-12T17:38:06.572Z,7.25
2024-02-12T17:40:34.829Z,7.13
2024-02-12T17:43:04.986Z,6.88
2024-02-12T17:45:32.845Z,7.53
2024-02-12T17:48:01.694Z,7.32
2024-02-12T17:50:30.717Z,7.60
2024-02-12T17:52:58.684Z,8.07
2024-02-12T17:55:27.955Z,7.95
2024-02-12T17:57:55.800Z,7.38
2024-02-12T18:00:25.379Z,7.90
2024-02-12T18:02:54.606Z,7.68
2024-02-12T18:05:23.054Z,7.82
2024-02-12T18:07:51.004Z,7.40
2024-02-12T18:10:19.023Z,8.18
2024-02-12T18:12:46.946Z,7.47
2024-02-12T18:15:16.427Z,7.85
2024-02-12T18:17:49.070Z,8.23
2024-02-12T18:20:18.120Z,7.93
2024-02-12T18:22:46.042Z,7.80
2024-02-12T18:25:15.741Z,7.97
2024-02-12T18:27:44.050Z,8.13
2024-02-12T18:30:12.780Z,8.15
2024-02-12T18:32:41.394Z,8.27
2024-02-12T18:35:11.964Z,8.02
2024-02-12T18:37:41.531Z,7.75
2024-02-12T18:40:17.588Z,7.47
2024-02-12T18:42:47.206Z,8.48
2024-02-12T18:45:17.225Z,8.00
2024-02-12T18:47:48.340Z,7.70
2024-02-12T18:50:18.535Z,8.52
2024-02-12T18:52:49.657Z,7.88
2024-02-12T18:55:18.200Z,7.43
2024-02-12T18:57:47.769Z,7.47
2024-02-12T19:00:16.849Z,7.70
2024-02-12T19:02:46.366Z,7.97
2024-02-12T19:05:14.702Z,8.13
2024-02-12T19:07:44.506Z,7.40
2024-02-12T19:10:13.860Z,7.00
2024-02-12T19:12:43.900Z,7.35
2024-02-12T19:15:15.528Z,6.35
2024-02-12T19:17:44.254Z,6.85
2024-02-12T19:20:13.725Z,7.35
2024-02-12T19:22:41.861Z,6.72
2024-02-12T19:25:12.069Z,6.57
2024-02-12T19:27:43.054Z,7.20
2024-02-12T19:30:12.799Z,6.43
2024-02-12T19:32:40.884Z,6.55
2024-02-12T19:35:11.505Z,6.63
2024-02-12T19:37:40.132Z,5.97
2024-02-12T19:40:14.996Z,5.93
2024-02-12T19:42:47.326Z,6.55
2024-02-12T19:45:15.819Z,5.88
2024-02-12T19:47:44.331Z,6.30
2024-02-12T19:50:14.321Z,6.18
2024-02-12T19:52:43.168Z,6.00
2024-02-12T19:55:12.923Z,5.72
2024-02-12T19:57:42.204Z,5.90
2024-02-12T20:00:15.033Z,6.00
2024-02-12T20:02:44.228Z,4.80
2024-02-12T20:05:12.690Z,6.10
2024-02-12T20:07:41.073Z,5.63
2024-02-12T20:10:10.904Z,5.88
2024-02-12T20:12:39.732Z,6.22
2024-02-12T20:15:12.613Z,5.82
2024-02-12T20:17:42.491Z,5.25
2024-02-12T20:20:12.913Z,5.20
2024-02-12T20:22:42.503Z,4.93
2024-02-12T20:25:11.386Z,4.78
2024-02-12T20:27:40.267Z,5.32
2024-02-12T20:30:11.927Z,5.25
2024-02-12T20:32:42.850Z,4.90
2024-02-12T20:35:15.278Z,4.43
2024-02-12T20:37:43.763Z,4.13
2024-02-12T20:40:14.705Z,5.07
2024-02-12T20:42:42.985Z,4.15
2024-02-12T20:45:12.051Z,4.63
2024-02-12T20:47:41.724Z,4.43
2024-02-12T20:50:11.712Z,3.97
2024-02-12T20:52:39.797Z,4.43
2024-02-12T20:55:11.561Z,4.00
2024-02-12T20:57:39.713Z,5.15
2024-02-12T21:00:09.287Z,3.90
2024-02-12T21:02:37.693Z,3.97
2024-02-12T21:05:10.967Z,3.20
2024-02-12T21:07:39.242Z,3.63
2024-02-12T21:10:08.487Z,3.78
2024-02-12T21:12:36.512Z,3.92
2024-02-12T21:15:06.876Z,4.53
2024-02-12T21:17:35.011Z,3.58
2024-02-12T21:20:05.613Z,3.50
2024-02-12T21:22:34.911Z,4.10
2024-02-12T21:25:03.076Z,3.45
2024-02-12T21:27:31.047Z,3.35
2024-02-12T21:29:59.527Z,3.22
2024-02-12T21:32:28.220Z,3.03
2024-02-12T21:34:57.164Z,3.38
2024-02-12T21:37:26.354Z,3.63
2024-02-12T21:39:55.842Z,3.40
2024-02-12T21:42:28.013Z,3.20
2024-02-12T21:44:58.449Z,3.33
2024-02-12T21:47:28.326Z,3.08
2024-02-12T21:49:56.559Z,3.35
2024-02-12T21:52:26.023Z,2.97
2024-02-12T21:54:55.441Z,2.83
2024-02-12T21:57:24.529Z,3.63
2024-02-12T21:59:54.619Z,3.00
2024-02-12T22:02:23.055Z,3.22
2024-02-12T22:04:52.052Z,3.03
2024-02-12T22:07:20.684Z,3.10
2024-02-12T22:09:48.570Z,2.83
2024-02-12T22:12:17.924Z,4.25
2024-02-12T22:14:48.409Z,3.10
2024-02-12T22:17:16.604Z,3.92
2024-02-12T22:19:44.543Z,3.22
2024-02-12T22:22:12.874Z,3.28
2024-02-12T22:24:41.451Z,3.40
2024-02-12T22:27:09.327Z,3.30
2024-02-12T22:29:38.518Z,3.30
2024-02-12T22:32:06.996Z,3.13
2024-02-12T22:34:35.013Z,3.35
2024-02-12T22:37:02.953Z,3.05
2024-02-12T22:39:30.795Z,3.53
2024-02-12T22:41:58.972Z,3.10
2024-02-12T22:44:26.938Z,3.17
2024-02-12T22:46:56.294Z,3.35
2024-02-12T22:49:24.260Z,3.17
2024-02-12T22:51:54.272Z,3.38
2024-02-12T22:54:22.258Z,3.10
2024-02-12T22:56:50.851Z,2.97
2024-02-12T22:59:19.450Z,3.08
2024-02-12T23:01:47.428Z,2.72
2024-02-12T23:04:16.588Z,3.25
2024-02-12T23:06:44.523Z,2.92
2024-02-12T23:09:12.531Z,2.60
2024-02-12T23:11:40.537Z,3.22
2024-02-12T23:14:10.862Z,2.90
2024-02-12T23:16:39.086Z,2.38
2024-02-12T23:19:07.807Z,2.90
2024-02-12T23:21:37.093Z,2.50
2024-02-12T23:24:05.172Z,2.95
2024-02-12T23:26:33.393Z,2.97
2024-02-12T23:29:01.532Z,2.50
2024-02-12T23:31:34.282Z,2.85
2024-02-12T23:34:02.775Z,2.75
2024-02-12T23:36:31.348Z,2.60
2024-02-12T23:39:00.495Z,2.83
2024-02-12T23:41:28.531Z,2.70
2024-02-12T23:43:56.355Z,2.70
2024-02-12T23:46:24.233Z,2.42
2024-02-12T23:48:52.213Z,2.50
2024-02-12T23:51:20.137Z,2.60
2024-02-12T23:53:48.057Z,2.53
2024-02-12T23:56:22.626Z,2.78
2024-02-12T23:58:50.564Z,2.00
